createdAt,value
2018-06-21T00:00:02.624Z,0
2018-06-21T00:05:02.711Z,0
2018-06-21T00:10:03.436Z,0
2018-06-21T00:15:03.088Z,0
2018-06-21T00:20:02.738Z,0
2018-06-21T00:25:03.515Z,0
2018-06-21T00:30:03.203Z,0
2018-06-21T00:35:02.799Z,0
2018-06-21T00:40:03.410Z,0
2018-06-21T00:45:02.979Z,0
2018-06-21T00:50:02.610Z,0
2018-06-21T00:55:03.215Z,0
2018-06-21T01:00:02.874Z,0
2018-06-21T01:05:02.456Z,0
2018-06-21T01:10:03.139Z,0
2018-06-21T01:15:02.796Z,0
2018-06-21T01:20:03.472Z,0
2018-06-21T01:25:03.214Z,0
2018-06-21T01:30:02.993Z,0
2018-06-21T01:35:02.766Z,0
2018-06-21T01:40:02.572Z,0
2018-06-21T01:45:03.526Z,0
2018-06-21T01:50:03.270Z,0
2018-06-21T01:55:03.035Z,0
2018-06-21T02:00:02.710Z,0
2018-06-21T02:05:03.518Z,1
2018-06-21T02:10:03.296Z,1
2018-06-21T02:15:03.047Z,1
2018-06-21T02:20:02.995Z,0
2018-06-21T02:25:02.731Z,0
2018-06-21T02:30:03.435Z,0
2018-06-21T02:35:03.240Z,1
2018-06-21T02:40:02.981Z,2
2018-06-21T02:45:02.713Z,4
2018-06-21T02:50:03.436Z,7
2018-06-21T02:55:03.159Z,13
2018-06-21T03:00:03.223Z,24
2018-06-21T03:05:03.617Z,35
2018-06-21T03:10:02.766Z,38
2018-06-21T03:15:03.506Z,36
2018-06-21T03:20:03.249Z,44
2018-06-21T03:25:03.011Z,54
2018-06-21T03:30:02.683Z,52
2018-06-21T03:35:03.442Z,61
2018-06-21T03:40:03.244Z,70
2018-06-21T03:45:02.995Z,250
2018-06-21T03:50:02.988Z,204
2018-06-21T03:55:02.651Z,162
2018-06-21T04:00:03.311Z,60
2018-06-21T04:05:03.112Z,52
2018-06-21T04:10:02.870Z,144
2018-06-21T04:15:02.632Z,65
2018-06-21T04:20:03.364Z,79
2018-06-21T04:25:03.107Z,217
2018-06-21T04:30:03.118Z,414
2018-06-21T04:35:02.856Z,442
2018-06-21T04:40:02.664Z,352
2018-06-21T04:45:03.393Z,201
2018-06-21T04:50:03.029Z,376
2018-06-21T04:55:02.764Z,515
2018-06-21T05:00:02.591Z,972
2018-06-21T05:05:02.586Z,682
2018-06-21T05:10:03.420Z,579
2018-06-21T05:15:03.112Z,972
2018-06-21T05:20:02.947Z,1000
2018-06-21T05:25:02.807Z,1000
2018-06-21T05:30:02.711Z,3000
2018-06-21T05:35:03.276Z,3000
2018-06-21T05:40:02.830Z,2000
2018-06-21T05:45:03.454Z,2000
2018-06-21T05:50:03.045Z,3000
2018-06-21T05:55:02.657Z,2000
2018-06-21T06:00:03.231Z,1000
2018-06-21T06:05:02.811Z,1000
2018-06-21T06:10:03.587Z,2000
2018-06-21T06:15:03.480Z,3000
2018-06-21T06:20:03.274Z,2000
2018-06-21T06:25:03.360Z,4000
2018-06-21T06:30:02.959Z,856
2018-06-21T06:35:02.577Z,988
2018-06-21T06:40:03.208Z,2000
2018-06-21T06:45:02.784Z,5000
2018-06-21T06:50:03.374Z,7000
2018-06-21T06:55:03.002Z,6000
2018-06-21T07:00:02.627Z,6000
2018-06-21T07:05:03.218Z,2000
2018-06-21T07:10:02.880Z,1000
2018-06-21T07:15:03.454Z,2000
2018-06-21T07:20:03.051Z,3000
2018-06-21T07:25:02.700Z,9000
2018-06-21T07:30:03.298Z,9000
2018-06-21T07:35:02.885Z,9000
2018-06-21T07:40:02.605Z,11000
2018-06-21T07:45:03.281Z,11000
2018-06-21T07:50:02.869Z,3000
2018-06-21T07:55:02.476Z,4000
2018-06-21T08:00:03.037Z,14000
2018-06-21T08:05:02.954Z,6000
2018-06-21T08:10:03.103Z,9000
2018-06-21T08:15:02.717Z,15000
2018-06-21T08:20:03.449Z,57000
2018-06-21T08:25:03.027Z,14000
2018-06-21T08:30:02.680Z,20000
2018-06-21T08:35:03.292Z,64000
2018-06-21T08:40:02.948Z,13000
2018-06-21T08:45:02.535Z,4000
2018-06-21T08:50:03.183Z,5000
2018-06-21T08:55:02.782Z,11000
2018-06-21T09:00:03.372Z,40000
2018-06-21T09:05:02.986Z,51000
2018-06-21T09:10:02.655Z,53000
2018-06-21T09:15:03.243Z,63000
2018-06-21T09:20:02.778Z,58000
2018-06-21T09:25:03.390Z,52000
2018-06-21T09:30:02.986Z,53000
2018-06-21T09:35:02.657Z,47000
2018-06-21T09:40:03.354Z,55000
2018-06-21T09:45:02.953Z,7000
2018-06-21T09:50:02.585Z,13000
2018-06-21T09:55:03.097Z,51000
2018-06-21T10:00:02.687Z,43000
2018-06-21T10:05:03.409Z,9000
2018-06-21T10:10:03.117Z,56000
2018-06-21T10:15:02.785Z,57000
2018-06-21T10:20:03.413Z,11000
2018-06-21T10:25:03.023Z,21000
2018-06-21T10:30:02.657Z,8000
2018-06-21T10:35:03.277Z,41000
2018-06-21T10:40:03.103Z,35000
2018-06-21T10:45:02.702Z,49000
2018-06-21T10:50:03.275Z,51000
2018-06-21T10:55:02.903Z,54000
2018-06-21T11:00:02.480Z,23000
2018-06-21T11:05:03.150Z,10000
2018-06-21T11:10:02.745Z,36000
2018-06-21T11:15:03.390Z,16000
2018-06-21T11:20:02.990Z,57000
2018-06-21T11:25:02.619Z,54000
2018-06-21T11:30:03.228Z,46000
2018-06-21T11:35:02.799Z,42000
2018-06-21T11:40:02.506Z,13000
2018-06-21T11:45:03.151Z,55000
2018-06-21T11:50:02.855Z,27000
2018-06-21T11:55:03.445Z,54000
2018-06-21T12:00:03.028Z,10000
2018-06-21T12:05:02.706Z,45000
2018-06-21T12:10:03.350Z,52000
2018-06-21T12:15:03.047Z,44000
2018-06-21T12:20:02.713Z,43000
2018-06-21T12:25:03.303Z,46000
2018-06-21T12:30:02.888Z,45000
2018-06-21T12:35:02.573Z,53000
2018-06-21T12:40:03.183Z,45000
2018-06-21T12:45:02.808Z,43000
2018-06-21T12:50:03.446Z,43000
2018-06-21T12:55:03.073Z,47000
2018-06-21T13:00:02.705Z,45000
2018-06-21T13:05:02.603Z,54000
2018-06-21T13:10:03.298Z,47000
2018-06-21T13:15:02.909Z,19000
2018-06-21T13:20:02.590Z,33000
2018-06-21T13:30:02.848Z,13000
2018-06-21T13:35:03.440Z,43000
2018-06-21T13:40:03.095Z,40000
2018-06-21T13:45:02.758Z,21000
2018-06-21T13:50:03.491Z,9000
2018-06-21T13:55:03.003Z,12000
2018-06-21T14:00:02.624Z,35000
2018-06-21T14:05:03.274Z,8000
2018-06-21T14:10:02.959Z,22000
2018-06-21T14:15:02.583Z,19000
2018-06-21T14:20:03.188Z,32000
2018-06-21T14:25:02.916Z,30000
2018-06-21T14:30:02.621Z,31000
2018-06-21T14:35:02.626Z,28000
2018-06-21T14:40:03.282Z,31000
2018-06-21T14:45:03.106Z,30000
2018-06-21T14:50:02.777Z,28000
2018-06-21T14:55:03.422Z,27000
2018-06-21T15:00:02.981Z,33000
2018-06-21T15:05:02.735Z,31000
2018-06-21T15:10:02.543Z,8000
2018-06-21T15:15:03.194Z,6000
2018-06-21T15:20:02.850Z,1000
2018-06-21T15:25:02.453Z,3000
2018-06-21T15:30:03.047Z,3000
2018-06-21T15:35:02.667Z,3000
2018-06-21T15:40:03.413Z,5000
2018-06-21T15:45:03.357Z,7000
2018-06-21T15:50:03.058Z,28000
2018-06-21T15:55:02.656Z,3000
2018-06-21T16:00:03.421Z,6000
2018-06-21T16:05:03.126Z,3000
2018-06-21T16:10:02.779Z,5000
2018-06-21T16:15:03.355Z,5000
2018-06-21T16:20:02.912Z,21000
2018-06-21T16:25:02.546Z,20000
2018-06-21T16:30:03.162Z,17000
2018-06-21T16:35:02.822Z,15000
2018-06-21T16:40:02.628Z,15000
2018-06-21T16:45:03.302Z,16000
2018-06-21T16:50:02.862Z,15000
2018-06-21T16:55:03.427Z,14000
2018-06-21T17:00:03.131Z,13000
2018-06-21T17:05:02.752Z,13000
2018-06-21T17:10:03.482Z,13000
2018-06-21T17:15:03.144Z,12000
2018-06-21T17:20:02.723Z,11000
2018-06-21T17:25:03.324Z,3000
2018-06-21T17:30:02.936Z,1000
2018-06-21T17:35:02.566Z,9000
2018-06-21T17:40:03.216Z,1000
2018-06-21T17:45:02.776Z,3000
2018-06-21T17:50:03.376Z,9000
2018-06-21T17:55:02.943Z,8000
2018-06-21T18:00:02.529Z,7000
2018-06-21T18:05:03.166Z,1000
2018-06-21T18:10:02.823Z,1000
2018-06-21T18:15:03.465Z,1000
2018-06-21T18:20:03.074Z,1000
2018-06-21T18:25:02.694Z,3000
2018-06-21T18:30:03.282Z,7000
2018-06-21T18:35:02.926Z,5000
2018-06-21T18:40:02.636Z,1000
2018-06-21T18:45:03.228Z,2000
2018-06-21T18:50:02.852Z,2000
2018-06-21T18:55:03.471Z,2000
2018-06-21T19:00:02.997Z,1000
2018-06-21T19:05:02.621Z,1000
2018-06-21T19:10:03.250Z,949
2018-06-21T19:15:02.863Z,747
2018-06-21T19:20:03.425Z,584
2018-06-21T19:25:03.007Z,508
2018-06-21T19:30:02.853Z,439
2018-06-21T19:35:02.480Z,375
2018-06-21T19:40:03.164Z,330
2018-06-21T19:45:02.762Z,278
2018-06-21T19:50:03.383Z,186
2018-06-21T19:55:02.944Z,79
2018-06-21T20:00:02.624Z,62
2018-06-21T20:05:03.389Z,38
2018-06-21T20:10:03.133Z,39
2018-06-21T20:15:02.745Z,39
2018-06-21T20:20:03.320Z,33
2018-06-21T20:25:02.855Z,20
2018-06-21T20:30:02.527Z,12
2018-06-21T20:35:03.169Z,7
2018-06-21T20:40:02.782Z,4
2018-06-21T20:45:03.397Z,2
2018-06-21T20:50:03.029Z,0
2018-06-21T20:55:02.701Z,0
2018-06-21T21:00:03.302Z,0
2018-06-21T21:05:02.886Z,0
2018-06-21T21:10:02.632Z,0
2018-06-21T21:15:03.237Z,0
2018-06-21T21:20:02.890Z,0
2018-06-21T21:25:02.505Z,0
2018-06-21T21:30:03.121Z,0
2018-06-21T21:35:02.709Z,0
2018-06-21T21:40:03.332Z,0
2018-06-21T21:45:02.870Z,0
2018-06-21T21:50:03.447Z,0
2018-06-21T21:55:03.097Z,0
2018-06-21T22:00:02.666Z,0
2018-06-21T22:05:03.282Z,0
2018-06-21T22:10:02.876Z,0
2018-06-21T22:15:02.502Z,0
2018-06-21T22:20:03.217Z,0
2018-06-21T22:25:02.775Z,0
2018-06-21T22:30:03.410Z,0
2018-06-21T22:35:02.951Z,0
2018-06-21T22:40:02.606Z,0
2018-06-21T22:45:03.178Z,0
2018-06-21T22:50:02.762Z,0
2018-06-21T22:55:03.359Z,0
2018-06-21T23:00:02.959Z,0
2018-06-21T23:05:03.091Z,0
2018-06-21T23:10:02.778Z,0
2018-06-21T23:15:03.401Z,0
2018-06-21T23:20:03.023Z,0
2018-06-21T23:25:02.655Z,0
2018-06-21T23:30:03.249Z,0
2018-06-21T23:35:02.898Z,0
2018-06-21T23:40:02.589Z,0
2018-06-21T23:45:03.148Z,0
2018-06-21T23:50:02.696Z,0
2018-06-21T23:55:03.301Z,0
